This is the latest recevied weather packets stored in our database for station/object VA7NEZ. If no packets are shown the sender has not sent any weather packets the latest 10 day(s).
| Time | Temp. | Humidity | Pressure | Rain* | Wind** | Luminosity | Snow |
|---|---|---|---|---|---|---|---|
| 1778166722 | 14.44° C | 51% | 1016.8 hPa | 0 mm | - | - | - |
| 1778165612 | 14.44° C | 55% | 1017 hPa | 0 mm | - | - | - |
| 1778165077 | 13.89° C | 58% | 1016.8 hPa | 0 mm | - | - | - |
| 1778164093 | 12.78° C | 65% | 1016.8 hPa | 0 mm | - | - | - |
| 1778163597 | 12.22° C | 67% | 1016.7 hPa | 0 mm | - | - | - |
| 1778163062 | 11.67° C | 67% | 1016.6 hPa | 0 mm | - | - | - |
| 1778162501 | 11.67° C | 66% | 1016.7 hPa | 0 mm | - | - | - |
| 1778161922 | 11.11° C | 67% | 1016.5 hPa | 0 mm | - | - | - |
| 1778161357 | 10.56° C | 69% | 1016.6 hPa | 0 mm | - | - | - |
| 1778160756 | 10.56° C | 69% | 1016.6 hPa | 0 mm | - | - | - |
| 1778159672 | 10.56° C | 68% | 1016.6 hPa | 0 mm | - | - | - |
| 1778158622 | 10.56° C | 69% | 1016.6 hPa | 0 mm | - | - | - |
| 1778158047 | 11.11° C | 66% | 1016.5 hPa | 0 mm | - | - | - |
| 1778157542 | 11.11° C | 67% | 1016.4 hPa | 0 mm | - | - | - |
| 1778157042 | 11.11° C | 65% | 1016.2 hPa | 0 mm | - | - | - |
| 1778153287 | 12.22° C | 61% | 1015.6 hPa | 0 mm | - | - | - |
| 1778152747 | 12.78° C | 60% | 1015.5 hPa | 0 mm | - | - | - |
| 1778152222 | 12.78° C | 60% | 1015.4 hPa | 0 mm | - | - | - |
| 1778151687 | 12.78° C | 61% | 1015.4 hPa | 0 mm | - | - | - |
| 1778151122 | 13.33° C | 59% | 1015.3 hPa | 0 mm | - | - | - |
| 1778150592 | 13.33° C | 59% | 1015.4 hPa | 0 mm | - | - | - |
| 1778150045 | 13.89° C | 57% | 1015.3 hPa | 0 mm | - | - | - |
| 1778149491 | 13.33° C | 58% | 1015.3 hPa | 0 mm | - | - | - |
| 1778148902 | 13.89° C | 57% | 1015.2 hPa | 0 mm | - | - | - |
| 1778147832 | 13.89° C | 57% | 1015.1 hPa | 0 mm | - | - | - |
* Rain latest hour (hover to see other rain measurements)
** Current wind speed in m/s (hover to see current wind gust speed)